Time;durP1;ratioP1;P1;durP2;ratioP2;P2;SDS_P1;SDS_P2;PMS_P1;PMS_P2;Temp;Humidity;BMP_temperature;BMP_pressure;BME280_temperature;BME280_humidity;BME280_pressure;Samples;Min_cycle;Max_cycle;Signal;HPM_P1;HPM_P2
2023/09/14 04:01:14;;;;;;;0.60;0.10;;;16.20;96.60;;;;;;5593059;23;20485;-72
2023/09/14 04:03:42;;;;;;;0.60;0.10;;;16.10;97.70;;;;;;4991125;28;20523;-73
2023/09/14 04:06:10;;;;;;;0.60;0.13;;;16.00;98.40;;;;;;4991639;28;20488;-73
2023/09/14 04:08:38;;;;;;;0.60;0.10;;;16.00;99.90;;;;;;4992179;28;20952;-72
2023/09/14 04:11:06;;;;;;;0.60;0.20;;;15.80;99.90;;;;;;5000222;28;20550;-72
2023/09/14 04:13:35;;;;;;;0.60;0.10;;;15.80;99.90;;;;;;5066383;23;20856;-69
2023/09/14 04:16:04;;;;;;;0.60;0.20;;;15.80;99.90;;;;;;5022577;28;20478;-72
2023/09/14 04:18:35;;;;;;;0.60;0.10;;;15.70;99.90;;;;;;5014302;28;20474;-71
2023/09/14 04:21:04;;;;;;;0.60;0.10;;;15.70;99.90;;;;;;5016674;28;20452;-69
2023/09/14 04:23:32;;;;;;;0.60;0.10;;;15.70;99.90;;;;;;5025091;28;20462;-69
2023/09/14 04:26:01;;;;;;;0.60;0.10;;;15.70;99.90;;;;;;5012548;28;20529;-70
2023/09/14 04:28:30;;;;;;;0.60;0.10;;;15.70;99.90;;;;;;5004549;28;20490;-69
2023/09/14 04:31:02;;;;;;;1.77;1.67;;;15.70;99.90;;;;;;5000805;28;20487;-68
2023/09/14 04:33:31;;;;;;;1.43;1.23;;;15.70;99.90;;;;;;4992101;28;20865;-68
2023/09/14 04:36:05;;;;;;;0.60;0.10;;;15.70;99.90;;;;;;4995330;28;20530;-69
2023/09/14 04:38:33;;;;;;;0.60;0.10;;;15.70;99.90;;;;;;5004348;28;20832;-73
2023/09/14 04:41:04;;;;;;;0.60;0.20;;;15.70;99.90;;;;;;4999293;28;20457;-70
2023/09/14 04:43:32;;;;;;;0.60;0.10;;;15.60;99.90;;;;;;5011427;28;20519;-74
2023/09/14 04:46:01;;;;;;;0.60;0.10;;;;;;;;;;5008738;28;20513;-69
2023/09/14 04:48:29;;;;;;;0.60;0.10;;;15.60;99.90;;;;;;5003442;28;20856;-71
2023/09/14 04:50:58;;;;;;;0.60;0.10;;;15.60;99.90;;;;;;4995096;28;20441;-70
2023/09/14 04:53:27;;;;;;;0.60;0.10;;;15.60;99.90;;;;;;5002214;28;20524;-71
2023/09/14 04:55:55;;;;;;;0.60;0.10;;;15.60;99.90;;;;;;5007018;28;20455;-70
2023/09/14 04:58:23;;;;;;;0.60;0.10;;;15.60;99.90;;;;;;5015073;28;20868;-69
2023/09/14 05:00:54;;;;;;;0.60;0.20;;;15.60;99.90;;;;;;5010496;28;20502;-70
2023/09/14 05:03:23;;;;;;;0.60;0.10;;;;;;;;;;5003173;28;20817;-69
2023/09/14 05:05:52;;;;;;;0.60;0.10;;;15.60;99.90;;;;;;5002786;28;21157;-69
2023/09/14 05:08:20;;;;;;;0.60;0.10;;;15.60;99.90;;;;;;5000504;28;20445;-70
2023/09/14 05:10:51;;;;;;;0.60;0.10;;;15.60;99.90;;;;;;5005029;28;20444;-70
2023/09/14 05:13:20;;;;;;;0.60;0.10;;;15.70;99.90;;;;;;5011362;28;20515;-69
2023/09/14 05:15:48;;;;;;;0.60;0.10;;;15.60;99.90;;;;;;4996056;28;20902;-71
2023/09/14 05:18:16;;;;;;;0.60;0.10;;;15.60;99.90;;;;;;5008510;28;21029;-70
2023/09/14 05:20:45;;;;;;;0.60;0.20;;;;;;;;;;5002942;28;20444;-70
2023/09/14 05:23:12;;;;;;;0.60;0.20;;;15.60;99.90;;;;;;4997509;28;20570;-69
2023/09/14 05:25:41;;;;;;;0.60;0.20;;;15.60;99.90;;;;;;5002951;28;20448;-70
2023/09/14 05:28:10;;;;;;;0.60;0.10;;;15.60;99.90;;;;;;4999102;28;20530;-69
2023/09/14 05:30:38;;;;;;;0.60;0.10;;;15.60;99.90;;;;;;5005830;28;20448;-70
2023/09/14 05:33:07;;;;;;;0.60;0.10;;;15.60;99.90;;;;;;5002036;28;20495;-70
2023/09/14 05:35:35;;;;;;;0.60;0.20;;;15.60;99.90;;;;;;4994579;28;20449;-69
2023/09/14 05:38:03;;;;;;;0.60;0.20;;;15.50;99.90;;;;;;5006599;28;20454;-70
2023/09/14 05:40:32;;;;;;;0.60;0.10;;;15.50;99.90;;;;;;5006312;28;20451;-69
2023/09/14 05:43:00;;;;;;;0.60;0.10;;;15.40;99.90;;;;;;5013515;28;20496;-74
2023/09/14 05:45:29;;;;;;;0.60;0.30;;;15.50;99.90;;;;;;5014516;28;20829;-74
2023/09/14 05:47:57;;;;;;;0.60;0.10;;;15.50;99.90;;;;;;5014697;28;20526;-68
2023/09/14 05:50:25;;;;;;;0.60;0.20;;;15.50;99.90;;;;;;5010719;28;20494;-71
2023/09/14 05:52:55;;;;;;;1.43;0.20;;;15.40;99.90;;;;;;5013507;28;20875;-69
2023/09/14 05:55:23;;;;;;;0.60;0.10;;;15.40;99.90;;;;;;5003532;28;20437;-70
2023/09/14 05:57:50;;;;;;;0.60;0.17;;;15.40;99.90;;;;;;5014285;28;20479;-71
2023/09/14 06:00:21;;;;;;;0.60;0.10;;;15.40;99.90;;;;;;5013942;28;20487;-72
2023/09/14 06:02:50;;;;;;;0.70;0.20;;;15.30;99.90;;;;;;5014046;28;21006;-69
2023/09/14 06:05:18;;;;;;;1.10;0.50;;;15.30;99.90;;;;;;4999885;28;20499;-69
2023/09/14 06:07:53;;;;;;;0.60;0.20;;;15.30;99.90;;;;;;5004738;28;20451;-72
2023/09/14 06:10:22;;;;;;;0.60;0.10;;;15.30;99.90;;;;;;5006931;28;20582;-69
2023/09/14 06:12:50;;;;;;;0.70;0.20;;;15.40;99.90;;;;;;5005102;28;20812;-69
2023/09/14 06:15:18;;;;;;;0.60;0.10;;;15.40;99.90;;;;;;4999134;28;20484;-69
2023/09/14 06:17:47;;;;;;;0.60;0.10;;;15.40;99.90;;;;;;4994007;28;21122;-70
2023/09/14 06:20:16;;;;;;;0.60;0.20;;;15.50;99.90;;;;;;4998908;28;20451;-71
2023/09/14 06:22:44;;;;;;;0.70;0.33;;;15.50;99.90;;;;;;5004148;28;20885;-70
2023/09/14 06:25:12;;;;;;;0.60;0.13;;;15.50;99.90;;;;;;4993810;28;20444;-72
2023/09/14 06:27:40;;;;;;;0.60;0.10;;;15.60;99.90;;;;;;5004497;28;20483;-71
2023/09/14 06:30:09;;;;;;;0.60;0.10;;;15.60;99.90;;;;;;5011071;28;20535;-71
2023/09/14 06:32:37;;;;;;;0.60;0.10;;;;;;;;;;5004883;28;20984;-70
2023/09/14 06:35:07;;;;;;;0.60;0.10;;;15.60;99.90;;;;;;5001267;28;20491;-71
2023/09/14 06:37:36;;;;;;;0.60;0.10;;;15.60;99.90;;;;;;4992963;28;20970;-75
2023/09/14 06:40:08;;;;;;;0.60;0.10;;;15.60;99.90;;;;;;4993359;28;20499;-70
2023/09/14 06:42:37;;;;;;;0.60;0.10;;;15.60;99.90;;;;;;4993815;28;20460;-74
2023/09/14 06:45:06;;;;;;;0.60;0.10;;;15.60;99.90;;;;;;5012145;28;20486;-69
2023/09/14 06:47:34;;;;;;;0.60;0.20;;;15.70;99.90;;;;;;5012383;28;20889;-70
2023/09/14 06:50:03;;;;;;;0.60;0.10;;;15.70;99.90;;;;;;5012339;28;20535;-70
2023/09/14 06:52:32;;;;;;;0.60;0.20;;;15.80;99.90;;;;;;5001328;28;20500;-71
2023/09/14 06:55:02;;;;;;;0.60;0.10;;;15.80;99.90;;;;;;5008514;28;20590;-69
2023/09/14 06:57:30;;;;;;;0.60;0.10;;;15.80;99.90;;;;;;5001245;28;20451;-69
2023/09/14 06:59:58;;;;;;;0.60;0.10;;;15.90;99.90;;;;;;5002839;28;20531;-70
2023/09/14 07:02:27;;;;;;;0.60;0.10;;;15.90;99.90;;;;;;4997333;28;20490;-70
2023/09/14 07:04:56;;;;;;;1.57;1.47;;;15.90;99.90;;;;;;5006379;28;20578;-74
2023/09/14 07:07:24;;;;;;;0.60;0.30;;;15.90;99.90;;;;;;4992988;28;20448;-70
2023/09/14 07:09:52;;;;;;;1.20;0.83;;;15.90;99.90;;;;;;5009413;28;20447;-70
2023/09/14 07:12:22;;;;;;;0.60;0.10;;;15.80;99.90;;;;;;5002862;28;20525;-70
2023/09/14 07:14:50;;;;;;;0.60;0.20;;;15.90;99.90;;;;;;4992217;28;20493;-73
2023/09/14 07:17:18;;;;;;;0.60;0.10;;;15.90;99.90;;;;;;5005375;28;20547;-72
2023/09/14 07:19:49;;;;;;;0.60;0.20;;;16.00;99.90;;;;;;5009812;28;20471;-71
2023/09/14 07:22:18;;;;;;;0.60;0.10;;;16.00;99.90;;;;;;5004973;28;20476;-69
2023/09/14 07:24:46;;;;;;;0.60;0.10;;;16.10;99.90;;;;;;5011043;28;20858;-69
2023/09/14 07:27:15;;;;;;;0.60;0.10;;;16.10;99.90;;;;;;4999808;28;20462;-69
2023/09/14 07:29:44;;;;;;;0.60;0.10;;;16.10;99.90;;;;;;5011197;28;20538;-71
2023/09/14 07:32:12;;;;;;;0.60;0.10;;;16.20;99.90;;;;;;4993198;28;20443;-73
2023/09/14 07:34:40;;;;;;;0.60;0.10;;;16.30;99.90;;;;;;4992744;28;20899;-73
2023/09/14 07:37:07;;;;;;;0.60;0.10;;;16.30;99.90;;;;;;4992713;28;20473;-69
2023/09/14 07:39:35;;;;;;;0.60;0.10;;;16.40;99.90;;;;;;5007568;28;20912;-68
2023/09/14 07:42:03;;;;;;;0.60;0.10;;;16.50;99.90;;;;;;5012567;28;20475;-69
2023/09/14 07:44:31;;;;;;;0.60;0.10;;;16.50;99.90;;;;;;5006492;28;20504;-69
2023/09/14 07:47:00;;;;;;;0.60;0.13;;;16.60;99.90;;;;;;5000486;28;20447;-74
2023/09/14 07:49:28;;;;;;;0.60;0.20;;;16.70;99.90;;;;;;5007329;28;20464;-73
2023/09/14 07:51:56;;;;;;;0.60;0.10;;;16.90;99.90;;;;;;5004306;28;20548;-73
2023/09/14 07:54:24;;;;;;;0.60;0.10;;;17.10;99.90;;;;;;5005496;28;20520;-73
2023/09/14 07:56:52;;;;;;;0.60;0.10;;;17.20;99.90;;;;;;4996793;28;20455;-73
2023/09/14 07:59:20;;;;;;;0.60;0.17;;;17.40;99.90;;;;;;5001840;28;21039;-72
2023/09/14 08:01:48;;;;;;;0.60;0.10;;;17.50;99.90;;;;;;5003611;28;20490;-72
2023/09/14 08:04:17;;;;;;;0.60;0.10;;;17.60;99.90;;;;;;5001578;28;20643;-73
2023/09/14 08:06:45;;;;;;;0.60;0.13;;;17.70;99.90;;;;;;5003392;28;20494;-73
2023/09/14 08:09:13;;;;;;;0.60;0.10;;;;;;;;;;5002540;28;20449;-73
2023/09/14 08:11:42;;;;;;;0.60;0.20;;;17.90;99.90;;;;;;4998508;28;20524;-73
2023/09/14 08:14:10;;;;;;;0.60;0.10;;;19.50;99.90;;;;;;5002339;28;20538;-73
2023/09/14 08:16:37;;;;;;;0.60;0.10;;;18.10;99.90;;;;;;5006971;28;20456;-73
2023/09/14 08:19:05;;;;;;;0.60;0.20;;;18.10;99.90;;;;;;4996772;28;20484;-73
2023/09/14 08:21:35;;;;;;;0.70;0.30;;;17.90;99.90;;;;;;4997287;28;20828;-73
2023/09/14 08:24:03;;;;;;;1.63;0.97;;;17.90;99.90;;;;;;5005190;28;20496;-74
2023/09/14 08:26:31;;;;;;;0.60;0.17;;;18.00;99.90;;;;;;5002806;28;20441;-71
2023/09/14 08:28:59;;;;;;;0.60;0.20;;;18.00;99.70;;;;;;5011257;28;20525;-73
2023/09/14 08:31:27;;;;;;;0.80;0.63;;;18.00;99.90;;;;;;5003961;28;20484;-72
2023/09/14 08:33:55;;;;;;;0.60;0.10;;;17.90;97.00;;;;;;5002664;28;20460;-73
2023/09/14 08:36:23;;;;;;;0.60;0.10;;;;;;;;;;5004880;28;20484;-73
2023/09/14 08:38:52;;;;;;;0.60;0.10;;;18.00;99.90;;;;;;5004066;28;20558;-71
2023/09/14 08:41:41;;;;;;;0.60;0.10;;;18.10;98.40;;;;;;5004276;28;20428;-72
2023/09/14 08:44:09;;;;;;;0.60;0.10;;;18.20;95.50;;;;;;5010302;28;20515;-69
2023/09/14 08:46:39;;;;;;;0.60;0.10;;;18.10;84.20;;;;;;5011864;28;20562;-68
2023/09/14 08:49:10;;;;;;;0.60;0.13;;;18.10;86.60;;;;;;4998251;28;20464;-75
2023/09/14 08:51:41;;;;;;;0.60;0.10;;;18.00;77.20;;;;;;5013827;28;20818;-69
2023/09/14 08:54:11;;;;;;;0.60;0.10;;;17.90;82.80;;;;;;5011249;28;20480;-73
2023/09/14 08:56:44;;;;;;;0.60;0.10;;;17.90;90.50;;;;;;5003041;28;20491;-72
2023/09/14 08:59:15;;;;;;;0.60;0.17;;;17.90;84.70;;;;;;5006512;28;20436;-71
2023/09/14 09:01:45;;;;;;;0.60;0.13;;;18.00;90.50;;;;;;5000883;28;20503;-70
2023/09/14 09:04:13;;;;;;;0.60;0.10;;;18.10;91.30;;;;;;5000187;28;20841;-70
2023/09/14 09:06:42;;;;;;;0.60;0.10;;;18.20;84.70;;;;;;5000588;28;20455;-71
2023/09/14 09:09:12;;;;;;;0.60;0.10;;;18.20;78.60;;;;;;5010995;28;20493;-70
2023/09/14 09:11:40;;;;;;;0.60;0.10;;;18.30;78.60;;;;;;5001526;28;20466;-70
2023/09/14 09:14:08;;;;;;;0.60;0.10;;;18.30;80.60;;;;;;5003741;28;20468;-70
2023/09/14 09:16:36;;;;;;;0.60;0.10;;;18.40;77.70;;;;;;5001358;28;20500;-70
2023/09/14 09:19:06;;;;;;;0.60;0.10;;;18.40;67.20;;;;;;5002185;28;20787;-69
2023/09/14 09:21:37;;;;;;;0.60;0.20;;;18.30;61.60;;;;;;4994294;28;20448;-72
2023/09/14 09:24:06;;;;;;;0.60;0.10;;;18.20;55.10;;;;;;5008760;28;20511;-68
2023/09/14 09:26:40;;;;;;;0.60;0.10;;;18.20;55.50;;;;;;4995417;28;21088;-68
2023/09/14 09:29:19;;;;;;;0.60;0.20;;;18.20;59.80;;;;;;5005712;28;20460;-72
2023/09/14 09:31:50;;;;;;;0.60;0.10;;;18.10;57.30;;;;;;4997836;28;20462;-68
2023/09/14 09:34:24;;;;;;;0.60;0.10;;;18.20;59.50;;;;;;4998133;28;20464;-69
2023/09/14 09:36:54;;;;;;;0.60;0.10;;;18.20;61.50;;;;;;5006757;28;20483;-69
2023/09/14 09:39:23;;;;;;;0.60;0.10;;;18.20;64.10;;;;;;5010359;28;20463;-70
2023/09/14 09:41:53;;;;;;;0.60;0.10;;;18.20;64.30;;;;;;5005997;28;20459;-72
2023/09/14 09:44:27;;;;;;;0.60;0.20;;;18.10;65.20;;;;;;5002215;28;20475;-68
2023/09/14 09:46:57;;;;;;;0.60;0.10;;;18.20;67.60;;;;;;5010457;28;20544;-68
2023/09/14 09:49:28;;;;;;;0.60;0.10;;;18.20;69.70;;;;;;4994013;28;20464;-69
2023/09/14 09:51:57;;;;;;;0.60;0.30;;;18.30;67.50;;;;;;4998357;28;20487;-68
2023/09/14 09:54:26;;;;;;;0.60;0.10;;;18.20;59.50;;;;;;5006618;28;20855;-69
2023/09/14 09:56:55;;;;;;;0.60;0.10;;;18.30;60.30;;;;;;5004703;28;20483;-69
2023/09/14 09:59:25;;;;;;;0.60;0.10;;;18.30;55.40;;;;;;5002319;28;20521;-68
2023/09/14 10:01:55;;;;;;;0.60;0.20;;;18.30;53.00;;;;;;5005520;28;20547;-68
2023/09/14 10:04:27;;;;;;;0.60;0.10;;;18.30;54.50;;;;;;5000321;28;20465;-69
2023/09/14 10:06:55;;;;;;;0.60;0.20;;;18.30;60.70;;;;;;4994549;28;20445;-70
2023/09/14 10:09:24;;;;;;;0.60;0.40;;;18.40;58.40;;;;;;4996017;28;20527;-69
2023/09/14 10:12:03;;;;;;;0.60;0.10;;;18.40;53.10;;;;;;5002684;28;20535;-68
2023/09/14 10:14:33;;;;;;;0.60;0.10;;;18.40;55.90;;;;;;5008260;28;20483;-69
2023/09/14 10:17:06;;;;;;;0.60;0.10;;;18.50;55.70;;;;;;4995451;28;20570;-70
2023/09/14 10:19:35;;;;;;;0.60;0.23;;;18.60;52.40;;;;;;5007862;28;20464;-68
2023/09/14 10:22:04;;;;;;;0.60;0.20;;;18.60;52.40;;;;;;5013060;28;20473;-69
2023/09/14 10:24:32;;;;;;;0.60;0.10;;;18.70;51.10;;;;;;5003845;28;20998;-71
2023/09/14 10:27:02;;;;;;;0.60;0.10;;;18.70;53.20;;;;;;5011727;28;20471;-69
2023/09/14 10:29:33;;;;;;;0.60;0.10;;;18.80;52.10;;;;;;4992956;28;20854;-68
2023/09/14 10:32:04;;;;;;;0.60;0.10;;;18.70;39.10;;;;;;4992732;28;20452;-68
2023/09/14 10:34:34;;;;;;;0.60;0.10;;;18.70;43.10;;;;;;5005748;28;20482;-72
2023/09/14 10:37:04;;;;;;;0.60;0.13;;;18.80;44.30;;;;;;5001495;28;20575;-70
2023/09/14 10:39:32;;;;;;;0.60;0.20;;;18.90;47.40;;;;;;5006780;28;20472;-73
2023/09/14 10:42:01;;;;;;;0.60;0.10;;;19.00;46.80;;;;;;5001443;28;20447;-72
2023/09/14 10:44:30;;;;;;;0.60;0.20;;;19.00;48.60;;;;;;5006632;28;20567;-69
2023/09/14 10:47:00;;;;;;;0.60;0.10;;;19.20;46.70;;;;;;4999174;28;20472;-70
2023/09/14 10:49:34;;;;;;;0.60;0.10;;;19.20;34.90;;;;;;4998546;28;20492;-69
2023/09/14 10:52:04;;;;;;;0.60;0.20;;;19.20;36.60;;;;;;4999537;28;20444;-68
2023/09/14 10:54:32;;;;;;;0.60;0.10;;;19.10;38.10;;;;;;5000390;28;20605;-69
2023/09/14 10:57:03;;;;;;;0.60;0.13;;;21.10;38.10;;;;;;4996837;28;20490;-70
2023/09/14 10:59:50;;;;;;;0.60;0.20;;;19.20;37.30;;;;;;5002075;28;20467;-69
2023/09/14 11:02:56;;;;;;;0.60;0.20;;;18.70;33.30;;;;;;4998700;28;20449;-69
2023/09/14 11:05:46;;;;;;;0.60;0.20;;;19.60;27.10;;;;;;5002158;28;20443;-68
2023/09/14 11:08:16;;;;;;;0.60;0.20;;;19.60;27.00;;;;;;4995712;28;20870;-72
2023/09/14 11:10:56;;;;;;;0.60;0.10;;;19.60;29.00;;;;;;4997976;28;20500;-69
2023/09/14 11:13:30;;;;;;;0.60;0.10;;;19.70;29.20;;;;;;5001452;28;21432;-69
2023/09/14 11:16:06;;;;;;;0.60;0.20;;;19.70;27.40;;;;;;4998394;28;20480;-69
2023/09/14 11:18:37;;;;;;;0.60;0.20;;;19.70;26.90;;;;;;4993456;28;20449;-69
2023/09/14 11:21:06;;;;;;;0.60;0.20;;;19.60;29.60;;;;;;5001237;28;20445;-68
2023/09/14 11:23:36;;;;;;;0.70;0.20;;;19.80;30.30;;;;;;4995245;28;21191;-71
2023/09/14 11:26:06;;;;;;;0.60;0.20;;;19.90;30.00;;;;;;4993534;28;20884;-68
2023/09/14 11:28:47;;;;;;;0.60;0.10;;;19.90;30.10;;;;;;4999336;28;20467;-70
2023/09/14 11:31:28;;;;;;;0.60;0.10;;;20.00;27.90;;;;;;5000792;28;20457;-76
2023/09/14 11:34:20;;;;;;;0.60;0.10;;;20.10;27.50;;;;;;4999692;28;20471;-74
2023/09/14 11:36:54;;;;;;;0.60;0.30;;;20.00;23.90;;;;;;4993828;28;20949;-73
2023/09/14 11:39:25;;;;;;;0.60;0.20;;;19.90;24.90;;;;;;4997310;28;20444;-71
2023/09/14 11:42:00;;;;;;;0.60;0.10;;;19.80;25.10;;;;;;5000429;28;20455;-72
2023/09/14 11:44:49;;;;;;;0.60;0.10;;;19.90;23.20;;;;;;5002134;28;20528;-70
2023/09/14 11:47:21;;;;;;;0.60;0.20;;;19.90;23.60;;;;;;4996407;28;20440;-72
2023/09/14 11:49:57;;;;;;;0.60;0.20;;;20.00;22.80;;;;;;5001280;28;20825;-72
2023/09/14 11:52:27;;;;;;;0.60;0.10;;;20.10;20.60;;;;;;5005544;28;20444;-72
2023/09/14 11:54:55;;;;;;;0.60;0.10;;;;;;;;;;5001528;28;21279;-70
2023/09/14 11:57:27;;;;;;;0.60;0.10;;;20.20;20.60;;;;;;4993987;28;20543;-71
2023/09/14 11:59:59;;;;;;;0.60;0.20;;;20.30;28.50;;;;;;5001369;28;20455;-73
2023/09/14 12:02:27;;;;;;;0.60;0.10;;;20.40;30.00;;;;;;5001459;28;20519;-72
2023/09/14 12:04:55;;;;;;;0.60;0.10;;;20.50;35.50;;;;;;4997843;28;20491;-71
2023/09/14 12:07:23;;;;;;;0.60;0.10;;;20.70;29.70;;;;;;5010641;28;20536;-72
2023/09/14 12:09:51;;;;;;;1.23;1.13;;;20.70;32.00;;;;;;5007279;28;20479;-70
2023/09/14 12:12:27;;;;;;;0.60;0.10;;;20.70;28.80;;;;;;5009041;28;20444;-71
2023/09/14 12:14:55;;;;;;;0.60;0.17;;;20.60;28.40;;;;;;5006189;28;20468;-71
2023/09/14 12:17:25;;;;;;;0.60;0.10;;;20.60;28.90;;;;;;4994897;28;20896;-71
2023/09/14 12:19:59;;;;;;;0.60;0.10;;;20.60;34.10;;;;;;5007549;28;20472;-70
2023/09/14 12:22:30;;;;;;;0.60;0.20;;;20.70;29.00;;;;;;5004258;28;20572;-70
2023/09/14 12:25:00;;;;;;;0.60;0.10;;;20.80;29.60;;;;;;5008514;28;20471;-72
2023/09/14 12:27:28;;;;;;;0.60;0.10;;;20.90;35.00;;;;;;4997658;28;20440;-72
2023/09/14 12:29:57;;;;;;;0.60;0.20;;;21.10;33.20;;;;;;5012443;28;20442;-72
2023/09/14 12:32:27;;;;;;;0.60;0.20;;;21.10;24.80;;;;;;5004527;28;20782;-72
2023/09/14 12:34:55;;;;;;;0.60;0.20;;;21.10;19.30;;;;;;4997215;28;20469;-72
2023/09/14 12:37:23;;;;;;;0.60;0.10;;;21.10;19.30;;;;;;5010063;28;20597;-72
2023/09/14 12:39:52;;;;;;;0.60;0.10;;;21.10;21.80;;;;;;5000386;28;20479;-73
2023/09/14 12:42:22;;;;;;;0.60;0.10;;;21.20;24.10;;;;;;5003393;28;20538;-73
2023/09/14 12:44:50;;;;;;;0.60;0.20;;;21.20;26.00;;;;;;5005500;28;20525;-72
2023/09/14 12:47:18;;;;;;;0.60;0.10;;;21.30;21.20;;;;;;5002967;28;20444;-72
2023/09/14 12:49:48;;;;;;;0.70;0.30;;;21.30;21.60;;;;;;5004741;28;20463;-73
2023/09/14 12:52:16;;;;;;;1.53;0.63;;;21.20;17.70;;;;;;5002023;28;20553;-73
2023/09/14 12:54:44;;;;;;;0.60;0.20;;;21.20;16.60;;;;;;5006412;28;20479;-70
2023/09/14 12:57:14;;;;;;;0.60;0.10;;;21.10;16.20;;;;;;5007069;28;20491;-70
2023/09/14 13:00:00;;;;;;;3.73;0.47;;;21.00;13.50;;;;;;5005499;28;20456;-71
2023/09/14 13:02:28;;;;;;;0.60;0.10;;;20.70;12.70;;;;;;5004029;28;20448;-70
2023/09/14 13:04:58;;;;;;;0.60;0.10;;;20.60;14.60;;;;;;5006896;28;20525;-71
2023/09/14 13:07:26;;;;;;;0.60;0.20;;;20.50;15.20;;;;;;4994620;28;20428;-71
2023/09/14 13:10:07;;;;;;;0.60;0.10;;;20.40;14.90;;;;;;5001340;28;20535;-70
2023/09/14 13:12:37;;;;;;;0.60;0.10;;;;;;;;;;4998241;28;20457;-71
2023/09/14 13:15:11;;;;;;;0.70;0.30;;;20.40;9.70;;;;;;5004613;28;20455;-72
2023/09/14 13:17:39;;;;;;;0.60;0.10;;;;;;;;;;5002241;28;20566;-70
2023/09/14 13:20:10;;;;;;;0.60;0.10;;;20.50;11.20;;;;;;4999664;28;20456;-70
2023/09/14 13:22:38;;;;;;;0.60;0.10;;;20.60;8.00;;;;;;5004887;28;20523;-72
2023/09/14 13:25:07;;;;;;;0.60;0.10;;;20.60;10.30;;;;;;5000841;28;21043;-72
2023/09/14 13:27:35;;;;;;;0.60;0.10;;;20.70;9.70;;;;;;5012084;28;20455;-72
2023/09/14 13:30:05;;;;;;;0.60;0.20;;;20.70;10.30;;;;;;5010449;28;20452;-71
2023/09/14 13:32:34;;;;;;;0.60;0.10;;;20.80;10.10;;;;;;5007264;28;20527;-73
2023/09/14 13:35:03;;;;;;;0.60;0.10;;;20.90;11.10;;;;;;4996222;28;20479;-71
2023/09/14 13:37:33;;;;;;;0.60;0.10;;;20.90;12.80;;;;;;4997591;28;20981;-72
2023/09/14 13:40:05;;;;;;;0.60;0.10;;;21.10;15.10;;;;;;5005735;28;20899;-72
2023/09/14 13:42:33;;;;;;;0.60;0.20;;;21.00;15.70;;;;;;5000127;28;20468;-71
2023/09/14 13:45:01;;;;;;;0.70;0.20;;;;;;;;;;5004354;28;20476;-70
2023/09/14 13:47:30;;;;;;;0.60;0.10;;;20.80;12.60;;;;;;4997274;28;20461;-72
2023/09/14 13:49:57;;;;;;;0.60;0.10;;;20.80;13.90;;;;;;4994791;28;20456;-72
2023/09/14 13:52:25;;;;;;;0.60;0.10;;;20.90;15.00;;;;;;4997314;28;20454;-72
2023/09/14 13:54:55;;;;;;;0.60;0.10;;;21.00;14.50;;;;;;4997797;28;20824;-70
2023/09/14 13:57:23;;;;;;;0.60;0.20;;;;;;;;;;4995901;28;20516;-71
2023/09/14 13:59:52;;;;;;;0.60;0.10;;;21.20;12.70;;;;;;5004758;28;20755;-71
2023/09/14 14:02:22;;;;;;;0.60;0.13;;;21.20;10.40;;;;;;4998912;28;20531;-70
2023/09/14 14:04:50;;;;;;;0.60;0.10;;;21.20;9.20;;;;;;5001952;28;21046;-72
2023/09/14 14:07:19;;;;;;;0.87;0.77;;;;;;;;;;5004317;28;20538;-73
2023/09/14 14:09:47;;;;;;;0.60;0.10;;;;;;;;;;5000072;28;20562;-72
2023/09/14 14:12:16;;;;;;;0.60;0.10;;;21.20;7.00;;;;;;5003166;28;20451;-72
2023/09/14 14:14:44;;;;;;;0.60;0.10;;;21.20;9.10;;;;;;5011230;28;20913;-71
2023/09/14 14:17:12;;;;;;;0.60;0.10;;;;;;;;;;5001422;28;20452;-72
2023/09/14 14:19:40;;;;;;;0.60;0.10;;;21.20;2.60;;;;;;4993666;28;20481;-72
2023/09/14 14:22:08;;;;;;;0.60;0.10;;;21.20;3.90;;;;;;4993653;28;20884;-72
2023/09/14 14:24:35;;;;;;;0.60;0.10;;;21.20;5.60;;;;;;4993732;28;20468;-72
2023/09/14 14:27:04;;;;;;;0.60;0.13;;;21.40;7.00;;;;;;5001445;28;20460;-72
2023/09/14 14:29:33;;;;;;;0.60;0.10;;;21.40;7.80;;;;;;4995299;28;20468;-73
2023/09/14 14:32:01;;;;;;;0.60;0.10;;;;;;;;;;5004117;28;20503;-72
2023/09/14 14:34:29;;;;;;;0.60;0.10;;;;;;;;;;5014953;28;20463;-71
2023/09/14 14:36:58;;;;;;;0.60;0.20;;;;;;;;;;5012676;28;20444;-72
2023/09/14 14:39:26;;;;;;;0.60;0.10;;;;;;;;;;5012623;28;20476;-72
2023/09/14 14:41:54;;;;;;;0.70;0.23;;;21.40;7.30;;;;;;5012674;28;20448;-72
2023/09/14 14:44:24;;;;;;;0.60;0.20;;;21.30;8.30;;;;;;5012112;28;20476;-72
2023/09/14 14:46:53;;;;;;;0.60;0.10;;;21.40;9.30;;;;;;5012599;28;20455;-73
2023/09/14 14:49:22;;;;;;;0.60;0.10;;;;;;;;;;5011479;28;20432;-72
2023/09/14 14:51:50;;;;;;;0.60;0.10;;;21.40;6.80;;;;;;5009168;28;20482;-72
2023/09/14 14:54:19;;;;;;;0.60;0.10;;;;;;;;;;5014382;28;20473;-73
2023/09/14 14:56:47;;;;;;;0.60;0.10;;;;;;;;;;5013317;28;20494;-72
2023/09/14 14:59:15;;;;;;;0.70;0.40;;;;;;;;;;5012556;28;20508;-71
2023/09/14 15:01:43;;;;;;;0.60;0.20;;;;;;;;;;5012947;28;20547;-74
2023/09/14 15:04:13;;;;;;;0.60;0.10;;;21.50;9.10;;;;;;5013441;28;20467;-73
2023/09/14 15:06:41;;;;;;;0.60;0.10;;;21.50;8.60;;;;;;5013586;28;20522;-74
2023/09/14 15:09:12;;;;;;;0.60;0.10;;;21.50;7.70;;;;;;4996107;28;20445;-73
2023/09/14 15:11:40;;;;;;;0.60;0.10;;;;;;;;;;4996204;28;20468;-73
2023/09/14 15:14:09;;;;;;;0.60;0.10;;;;;;;;;;5011728;28;20838;-73
2023/09/14 15:16:37;;;;;;;1.03;0.40;;;21.60;5.40;;;;;;5011430;28;20446;-73
2023/09/14 15:19:05;;;;;;;0.60;0.20;;;21.60;6.20;;;;;;5009852;28;20479;-72
2023/09/14 15:21:34;;;;;;;0.60;0.10;;;21.60;6.70;;;;;;4996213;28;20451;-73
2023/09/14 15:24:02;;;;;;;0.60;0.10;;;;;;;;;;5003610;28;20995;-72
2023/09/14 15:26:30;;;;;;;0.60;0.20;;;21.80;7.10;;;;;;5004484;28;20444;-73
2023/09/14 15:28:59;;;;;;;0.60;0.13;;;;;;;;;;5006351;28;20437;-71
2023/09/14 15:31:27;;;;;;;0.60;0.10;;;22.10;6.30;;;;;;4998832;28;20459;-72
2023/09/14 15:33:56;;;;;;;0.60;0.10;;;;;;;;;;5004167;28;20476;-74
2023/09/14 15:36:24;;;;;;;0.60;0.20;;;;;;;;;;5001847;28;20497;-72
2023/09/14 15:38:53;;;;;;;0.60;0.10;;;22.00;1.30;;;;;;5000564;28;20481;-73
2023/09/14 15:41:22;;;;;;;0.60;0.20;;;22.10;1.50;;;;;;4998931;28;20565;-72
2023/09/14 15:43:52;;;;;;;0.60;0.10;;;22.10;1.30;;;;;;4999350;28;20530;-73
2023/09/14 15:46:20;;;;;;;0.60;0.10;;;22.10;3.50;;;;;;5003480;28;20460;-71
2023/09/14 15:48:48;;;;;;;0.60;0.27;;;;;;;;;;5007485;28;20456;-72
2023/09/14 15:51:17;;;;;;;0.60;0.20;;;;;;;;;;5005262;28;20970;-72
2023/09/14 15:53:47;;;;;;;0.60;0.30;;;22.50;4.30;;;;;;5005870;28;20476;-73
2023/09/14 15:56:17;;;;;;;0.60;0.10;;;22.60;5.00;;;;;;4993794;28;20515;-72
2023/09/14 15:58:46;;;;;;;0.60;0.10;;;22.70;4.50;;;;;;5001368;28;20484;-71
2023/09/14 16:01:14;;;;;;;0.60;0.20;;;;;;;;;;5001312;28;20531;-73
2023/09/14 16:03:43;;;;;;;0.60;0.20;;;;;;;;;;5008152;28;20472;-74
2023/09/14 16:06:12;;;;;;;2.20;1.50;;;;;;;;;;5001945;28;20462;-73
2023/09/14 16:08:40;;;;;;;0.60;0.20;;;;;;;;;;4999691;28;20459;-72
2023/09/14 16:11:08;;;;;;;0.60;0.10;;;22.40;1.00;;;;;;5000271;28;20452;-72
2023/09/14 16:13:36;;;;;;;0.60;0.10;;;;;;;;;;4998371;23;20486;31
2023/09/14 16:16:05;;;;;;;0.60;0.10;;;22.60;1.40;;;;;;5003152;23;20489;-75
2023/09/14 16:18:33;;;;;;;0.60;0.20;;;22.60;1.00;;;;;;4983533;28;20537;-75
2023/09/14 16:21:02;;;;;;;0.60;0.10;;;22.40;1.00;;;;;;4991466;28;20544;-74
2023/09/14 16:23:30;;;;;;;0.60;0.20;;;;;;;;;;4992029;28;20504;-74
2023/09/14 16:25:58;;;;;;;0.60;0.10;;;22.20;1.00;;;;;;4990983;28;20573;-74
2023/09/14 16:28:26;;;;;;;0.60;0.20;;;22.10;1.00;;;;;;4992925;28;20461;-76
2023/09/14 16:30:54;;;;;;;0.60;0.10;;;22.00;1.00;;;;;;4991265;28;20449;-77
2023/09/14 16:33:24;;;;;;;0.60;0.13;;;21.90;1.00;;;;;;4991882;28;20522;-74
2023/09/14 16:35:59;;;;;;;0.60;0.10;;;;;;;;;;4996037;28;20963;-75
2023/09/14 16:38:28;;;;;;;0.60;0.10;;;21.60;1.00;;;;;;4996178;28;20461;-75
2023/09/14 16:40:56;;;;;;;0.60;0.20;;;21.50;1.00;;;;;;4994409;28;21058;-76
2023/09/14 16:43:25;;;;;;;0.60;0.10;;;21.40;1.00;;;;;;4994532;28;20459;-76
2023/09/14 16:45:53;;;;;;;0.60;0.10;;;21.30;1.00;;;;;;4996743;28;20466;-76
2023/09/14 16:48:21;;;;;;;0.60;0.20;;;21.30;8.40;;;;;;4987032;28;20443;-74
2023/09/14 16:50:51;;;;;;;0.80;0.30;;;21.10;1.00;;;;;;4989624;28;20473;-75
2023/09/14 16:53:20;;;;;;;0.60;0.30;;;21.00;1.00;;;;;;4985524;28;20468;-75
2023/09/14 16:55:48;;;;;;;0.60;0.10;;;20.90;1.00;;;;;;4995376;28;20461;-75
2023/09/14 16:58:16;;;;;;;0.60;0.10;;;20.90;8.80;;;;;;4995867;28;20534;-74
2023/09/14 17:00:44;;;;;;;0.60;0.13;;;20.80;1.00;;;;;;4980512;28;20586;-75
2023/09/14 17:03:12;;;;;;;0.60;0.10;;;20.80;1.00;;;;;;4991268;28;20465;-75
2023/09/14 17:05:40;;;;;;;0.60;0.20;;;;;;;;;;4985561;28;20496;-75
2023/09/14 17:08:11;;;;;;;0.60;0.17;;;20.80;2.10;;;;;;4982819;28;20539;-76
2023/09/14 17:10:39;;;;;;;2.97;1.20;;;20.80;10.50;;;;;;4981570;28;20592;-75
2023/09/14 17:13:08;;;;;;;0.60;0.20;;;20.70;2.10;;;;;;4987409;28;21203;-75